createdAt,value
2022-11-18T00:00:55.588Z,94715.81
2022-11-18T00:03:22.397Z,94719.41
2022-11-18T00:05:49.981Z,94717.84
2022-11-18T00:08:16.956Z,94711.81
2022-11-18T00:10:44.470Z,94719.88
2022-11-18T00:13:11.826Z,94708.03
2022-11-18T00:15:39.287Z,94704.69
2022-11-18T00:18:10.384Z,94716.19
2022-11-18T00:26:12.207Z,94739.66
2022-11-18T00:28:39.136Z,94743.88
2022-11-18T00:31:06.972Z,94753.47
2022-11-18T00:33:33.934Z,94764.06
2022-11-18T00:36:02.498Z,94760.16
2022-11-18T00:38:29.882Z,94756.09
2022-11-18T00:40:56.816Z,94763.31
2022-11-18T00:43:25.763Z,94788.72
2022-11-18T00:45:52.774Z,94793.34
2022-11-18T00:48:19.676Z,94792.59
2022-11-18T00:50:49.963Z,94787.47
2022-11-18T00:53:18.541Z,94799.94
2022-11-18T00:55:45.229Z,94803.56
2022-11-18T00:58:13.963Z,94805.16
2022-11-18T01:00:48.642Z,94802.06
2022-11-18T01:03:15.299Z,94803.66
2022-11-18T01:05:42.193Z,94822.84
2022-11-18T01:08:10.057Z,94827.81
2022-11-18T01:10:37.361Z,94829.88
2022-11-18T01:13:04.088Z,94832.41
2022-11-18T01:15:34.581Z,94851.06
2022-11-18T01:18:02.527Z,94858.19
2022-11-18T01:20:31.089Z,94851.09
2022-11-18T01:22:58.042Z,94857.25
2022-11-18T01:25:25.946Z,94858.91
2022-11-18T01:27:54.480Z,94861.59
2022-11-18T01:30:22.543Z,94852.97
2022-11-18T01:32:49.454Z,94850.25
2022-11-18T01:35:18.148Z,94863.44
2022-11-18T01:37:44.745Z,94879.63
2022-11-18T01:40:11.689Z,94877.69
2022-11-18T01:42:40.143Z,94867.16
2022-11-18T01:45:08.014Z,94874.75
2022-11-18T01:47:35.084Z,94872.13
2022-11-18T01:50:02.237Z,94879.22
2022-11-18T01:52:29.152Z,94877.50
2022-11-18T01:55:00.317Z,94878.16
2022-11-18T01:57:27.348Z,94885.34
2022-11-18T01:59:54.126Z,94885.00
2022-11-18T02:02:21.094Z,94891.50
2022-11-18T02:04:55.366Z,94898.81
2022-11-18T02:07:22.479Z,94899.72
2022-11-18T02:09:49.100Z,94892.22
2022-11-18T02:12:16.256Z,94900.22
2022-11-18T02:14:42.918Z,94906.66
2022-11-18T02:17:09.860Z,94904.25
2022-11-18T02:19:36.843Z,94895.25
2022-11-18T02:22:16.257Z,94895.09
2022-11-18T02:24:43.432Z,94901.31
2022-11-18T02:27:10.266Z,94905.59
2022-11-18T02:29:37.745Z,94896.72
2022-11-18T02:32:05.207Z,94899.91
2022-11-18T02:34:31.932Z,94906.53
2022-11-18T02:36:58.542Z,94898.41
2022-11-18T02:39:28.664Z,94907.53
2022-11-18T02:41:55.402Z,94906.75
2022-11-18T02:44:22.091Z,94914.03
2022-11-18T02:46:49.030Z,94911.53
2022-11-18T02:49:17.194Z,94913.31
2022-11-18T02:51:44.825Z,94919.25
2022-11-18T02:54:13.263Z,94904.69
2022-11-18T02:56:40.904Z,94904.53
2022-11-18T02:59:07.912Z,94907.44
2022-11-18T03:01:35.492Z,94920.44
2022-11-18T03:04:02.633Z,94918.72
2022-11-18T03:06:31.939Z,94912.59
2022-11-18T03:09:01.031Z,94919.28
2022-11-18T03:11:31.389Z,94927.22
2022-11-18T03:13:58.851Z,94923.81
2022-11-18T03:16:25.924Z,94932.03
2022-11-18T03:18:54.772Z,94931.28
2022-11-18T03:21:21.456Z,94931.72
2022-11-18T03:23:48.420Z,94939.63
2022-11-18T03:26:15.393Z,94945.47
2022-11-18T03:28:42.916Z,94951.63
2022-11-18T03:31:09.960Z,94942.53
2022-11-18T03:33:36.542Z,94955.66
2022-11-18T03:36:04.234Z,94953.13
2022-11-18T03:38:31.340Z,94949.50
2022-11-18T03:40:58.446Z,94949.97
2022-11-18T03:43:25.427Z,94964.84
2022-11-18T03:45:53.044Z,94957.00
2022-11-18T03:48:19.547Z,94960.22
2022-11-18T03:50:46.264Z,94959.28
2022-11-18T03:53:13.701Z,94960.72
2022-11-18T03:55:40.450Z,94973.72
2022-11-18T03:58:07.588Z,94978.97
2022-11-18T04:00:34.541Z,94970.28
2022-11-18T04:05:32.419Z,94987.97
2022-11-18T04:07:59.115Z,94994.66
2022-11-18T04:10:26.635Z,94997.75
2022-11-18T04:13:06.760Z,94996.50
2022-11-18T04:15:33.863Z,94998.44
2022-11-18T04:18:11.767Z,95018.63
2022-11-18T04:20:41.874Z,95012.16
2022-11-18T04:23:11.279Z,95010.56
2022-11-18T04:25:38.240Z,95012.03
2022-11-18T04:28:04.948Z,95014.38
2022-11-18T04:30:32.327Z,95016.72
2022-11-18T04:32:59.053Z,95017.28
2022-11-18T04:35:25.729Z,95021.25
2022-11-18T04:37:52.873Z,95023.22
2022-11-18T04:40:20.332Z,95023.09
2022-11-18T04:42:51.711Z,95028.03
2022-11-18T04:45:18.581Z,95022.94
2022-11-18T04:47:45.504Z,95025.31
2022-11-18T04:50:19.557Z,95027.88
2022-11-18T04:52:50.675Z,95035.69
2022-11-18T04:55:17.390Z,95040.09
2022-11-18T04:57:44.287Z,95037.03
2022-11-18T05:00:14.656Z,95046.63
2022-11-18T05:02:42.497Z,95045.00
2022-11-18T05:05:10.201Z,95038.75
2022-11-18T05:07:37.279Z,95042.69
2022-11-18T05:10:07.176Z,95041.75
2022-11-18T05:12:33.930Z,95041.50
2022-11-18T05:15:02.996Z,95050.81
2022-11-18T05:17:29.845Z,95047.53
2022-11-18T05:19:57.008Z,95056.16
2022-11-18T05:22:25.562Z,95054.56
2022-11-18T05:24:52.532Z,95060.81
2022-11-18T05:27:19.567Z,95069.22
2022-11-18T05:29:46.522Z,95060.91
2022-11-18T05:32:13.350Z,95060.94
2022-11-18T05:34:44.540Z,95062.50
2022-11-18T05:37:11.673Z,95077.47
2022-11-18T05:39:38.695Z,95079.25
2022-11-18T05:42:05.377Z,95084.66
2022-11-18T05:44:37.423Z,95090.38
2022-11-18T05:47:04.559Z,95090.59
2022-11-18T05:49:35.823Z,95091.72
2022-11-18T05:52:03.276Z,95101.72
2022-11-18T05:54:33.486Z,95100.06
2022-11-18T05:57:01.389Z,95102.81
2022-11-18T05:59:33.436Z,95099.22
2022-11-18T06:05:06.725Z,95110.00
2022-11-18T06:07:48.102Z,95121.50
2022-11-18T06:10:15.362Z,95122.09
2022-11-18T06:12:42.840Z,95135.44
2022-11-18T06:15:09.924Z,95135.63
2022-11-18T06:17:41.022Z,95136.25
2022-11-18T06:20:09.727Z,95151.59
2022-11-18T06:22:46.539Z,95156.16
2022-11-18T06:25:13.731Z,95158.06
2022-11-18T06:27:40.609Z,95166.66
2022-11-18T06:30:10.894Z,95157.28
2022-11-18T06:35:26.996Z,95171.38
2022-11-18T06:37:55.712Z,95173.63
2022-11-18T06:49:47.795Z,95170.13
2022-11-18T06:52:15.584Z,95177.78
2022-11-18T06:54:44.194Z,95173.03
2022-11-18T06:57:16.519Z,95173.09
2022-11-18T06:59:44.762Z,95185.75
2022-11-18T07:05:02.641Z,95194.81
2022-11-18T07:07:31.631Z,95194.09
2022-11-18T07:10:02.059Z,95202.09
2022-11-18T07:12:30.922Z,95213.84
2022-11-18T07:14:57.699Z,95220.31
2022-11-18T07:17:24.862Z,95215.81
2022-11-18T07:19:53.844Z,95225.53
2022-11-18T07:22:23.589Z,95230.06
2022-11-18T07:24:52.212Z,95229.06
2022-11-18T07:27:19.422Z,95240.25
2022-11-18T07:29:51.246Z,95242.81
2022-11-18T07:32:19.092Z,95253.03
2022-11-18T07:34:46.239Z,95254.16
2022-11-18T07:37:13.896Z,95250.81
2022-11-18T07:39:42.440Z,95255.09
2022-11-18T07:42:10.157Z,95251.78
2022-11-18T07:44:37.732Z,95262.28
2022-11-18T07:47:04.864Z,95265.56
2022-11-18T07:49:37.828Z,95277.16
2022-11-18T07:52:06.240Z,95274.91
2022-11-18T07:54:37.174Z,95279.91
2022-11-18T08:03:17.776Z,95295.38
2022-11-18T08:05:44.954Z,95296.75
2022-11-18T08:08:12.978Z,95302.81
2022-11-18T08:10:41.520Z,95299.84
2022-11-18T08:13:18.087Z,95300.94
2022-11-18T08:15:45.701Z,95312.41
2022-11-18T08:18:13.840Z,95320.84
2022-11-18T08:20:41.035Z,95314.84
2022-11-18T08:23:11.421Z,95309.50
2022-11-18T08:25:41.625Z,95316.72
2022-11-18T08:28:08.593Z,95322.94
2022-11-18T08:30:39.658Z,95328.84
2022-11-18T08:33:06.610Z,95329.13
2022-11-18T08:35:35.467Z,95326.13
2022-11-18T08:38:02.446Z,95325.72
2022-11-18T08:40:31.276Z,95326.38
2022-11-18T08:42:58.278Z,95338.47
2022-11-18T08:45:25.165Z,95330.72
2022-11-18T08:47:54.109Z,95324.94
2022-11-18T08:50:21.047Z,95327.22
2022-11-18T08:52:47.965Z,95332.06
2022-11-18T08:55:20.593Z,95333.72
2022-11-18T08:57:48.200Z,95341.50
2022-11-18T09:03:22.035Z,95340.13
2022-11-18T09:05:52.963Z,95351.56
2022-11-18T09:08:20.917Z,95357.91
2022-11-18T09:10:49.671Z,95358.16
2022-11-18T09:13:47.530Z,95357.50
2022-11-18T09:16:07.237Z,95358.78
2022-11-18T09:21:17.364Z,95364.94
2022-11-18T09:23:45.071Z,95366.59
2022-11-18T09:26:14.389Z,95364.75
2022-11-18T09:28:43.175Z,95369.47
2022-11-18T09:31:10.713Z,95359.78
2022-11-18T09:33:39.388Z,95374.84
2022-11-18T09:42:11.582Z,95373.00
2022-11-18T09:44:38.600Z,95380.91
2022-11-18T09:47:05.980Z,95371.03
2022-11-18T09:49:33.142Z,95376.50
2022-11-18T09:51:59.865Z,95388.56
2022-11-18T09:54:27.189Z,95376.75
2022-11-18T09:59:39.529Z,95387.22
2022-11-18T10:02:07.442Z,95384.13
2022-11-18T10:04:43.658Z,95384.41
2022-11-18T10:07:11.684Z,95384.88
2022-11-18T10:09:43.521Z,95387.44
2022-11-18T10:12:12.931Z,95395.50
2022-11-18T10:14:40.491Z,95397.00
2022-11-18T10:17:09.409Z,95393.69
2022-11-18T10:19:36.888Z,95404.75
2022-11-18T10:22:17.985Z,95389.75
2022-11-18T10:24:47.524Z,95392.88
2022-11-18T10:27:16.284Z,95391.03
2022-11-18T10:29:44.222Z,95385.69
2022-11-18T10:32:15.727Z,95386.13
2022-11-18T10:34:42.823Z,95387.50
2022-11-18T10:37:12.105Z,95388.66
2022-11-18T10:39:39.598Z,95386.03
2022-11-18T10:42:08.745Z,95388.38
2022-11-18T10:44:35.656Z,95389.88
2022-11-18T10:47:05.377Z,95379.25
2022-11-18T10:52:17.426Z,95382.06
2022-11-18T10:57:27.076Z,95374.03
2022-11-18T10:59:55.879Z,95372.38
2022-11-18T11:02:24.706Z,95378.41
2022-11-18T11:04:56.052Z,95378.66
2022-11-18T11:07:23.755Z,95380.44
2022-11-18T11:09:52.984Z,95375.16
2022-11-18T11:12:22.519Z,95370.75
2022-11-18T11:14:51.168Z,95367.44
2022-11-18T11:17:19.483Z,95366.75
2022-11-18T11:19:49.473Z,95384.63
2022-11-18T11:25:00.423Z,95376.09
2022-11-18T11:30:24.094Z,95369.81
2022-11-18T11:32:51.078Z,95374.09
2022-11-18T11:35:20.789Z,95372.97
2022-11-18T11:37:48.641Z,95366.84
2022-11-18T11:40:17.420Z,95371.25
2022-11-18T11:42:44.782Z,95372.84
2022-11-18T11:45:12.471Z,95370.81
2022-11-18T11:47:39.492Z,95368.31
2022-11-18T11:50:08.211Z,95369.78
2022-11-18T11:52:36.838Z,95375.19
2022-11-18T11:55:04.348Z,95371.25
2022-11-18T11:57:31.365Z,95375.19
2022-11-18T12:00:03.454Z,95378.00
2022-11-18T12:02:41.477Z,95364.06
2022-11-18T12:05:16.125Z,95362.00
2022-11-18T12:11:06.460Z,95370.59
2022-11-18T12:16:23.889Z,95366.53
2022-11-18T12:18:54.764Z,95367.38
2022-11-18T12:21:22.044Z,95366.09
2022-11-18T12:26:42.990Z,95370.94
2022-11-18T12:31:53.957Z,95381.50
2022-11-18T12:34:21.912Z,95374.03
2022-11-18T12:36:54.668Z,95373.88
2022-11-18T12:39:26.413Z,95378.88
2022-11-18T12:41:53.714Z,95391.81
2022-11-18T12:44:21.327Z,95385.72
2022-11-18T12:46:48.897Z,95379.84
2022-11-18T12:49:25.053Z,95388.69
2022-11-18T12:51:53.650Z,95388.53
2022-11-18T12:54:20.659Z,95383.44
2022-11-18T12:56:50.481Z,95377.41
2022-11-18T12:59:18.054Z,95382.09
2022-11-18T13:01:45.249Z,95377.53
2022-11-18T13:04:15.422Z,95383.53
2022-11-18T13:06:42.261Z,95371.28
2022-11-18T13:09:10.052Z,95373.13
2022-11-18T13:11:37.390Z,95383.09
2022-11-18T13:14:05.345Z,95375.78
2022-11-18T13:16:38.103Z,95374.09
2022-11-18T13:19:05.826Z,95382.53
2022-11-18T13:26:58.368Z,95378.13
2022-11-18T13:29:26.836Z,95362.56
2022-11-18T13:31:59.051Z,95365.66
2022-11-18T13:34:26.871Z,95363.00
2022-11-18T13:36:58.316Z,95364.38
2022-11-18T13:39:26.559Z,95370.16
2022-11-18T13:41:54.613Z,95370.56
2022-11-18T13:44:31.000Z,95368.00
2022-11-18T13:46:59.031Z,95364.44
2022-11-18T13:52:19.546Z,95356.16
2022-11-18T13:54:49.542Z,95358.53
2022-11-18T13:57:18.134Z,95353.59
2022-11-18T13:59:46.941Z,95344.00
2022-11-18T14:02:18.713Z,95345.63
2022-11-18T14:13:30.152Z,95347.50
2022-11-18T14:16:00.721Z,95352.47
2022-11-18T14:18:27.729Z,95347.34
2022-11-18T14:20:54.453Z,95347.59
2022-11-18T14:29:13.857Z,95353.19
2022-11-18T14:31:41.416Z,95352.78
2022-11-18T14:34:08.413Z,95346.56
2022-11-18T14:36:36.871Z,95339.47
2022-11-18T14:39:25.349Z,95343.31
2022-11-18T14:41:52.299Z,95329.44
2022-11-18T14:44:21.229Z,95327.50
2022-11-18T14:46:47.802Z,95328.94
2022-11-18T14:49:14.717Z,95332.94
2022-11-18T14:51:43.073Z,95340.28
2022-11-18T15:09:33.532Z,95342.31
2022-11-18T15:12:04.567Z,95344.72
2022-11-18T15:14:32.415Z,95339.13
2022-11-18T17:43:34.000Z,95446.94
2022-11-18T17:46:01.259Z,95450.94
2022-11-18T17:48:28.887Z,95445.16
2022-11-18T17:50:56.531Z,95454.41
2022-11-18T17:53:23.846Z,95455.34
2022-11-18T17:55:52.881Z,95457.47
2022-11-18T17:58:20.204Z,95448.06
2022-11-18T18:03:42.285Z,95443.59
2022-11-18T18:06:10.754Z,95445.03
2022-11-18T18:08:38.506Z,95442.16
2022-11-18T18:11:06.472Z,95441.28
2022-11-18T18:13:33.523Z,95443.81
2022-11-18T18:16:01.451Z,95439.16
2022-11-18T18:18:34.384Z,95439.06
2022-11-18T18:21:01.886Z,95432.72
2022-11-18T18:23:38.734Z,95436.84
2022-11-18T18:26:06.667Z,95435.66
2022-11-18T18:28:33.492Z,95441.50
2022-11-18T18:31:04.762Z,95436.69
2022-11-18T18:33:32.317Z,95437.72
2022-11-18T18:36:01.423Z,95434.34
2022-11-18T18:38:31.154Z,95435.94
2022-11-18T18:40:58.159Z,95438.16
2022-11-18T18:43:28.224Z,95442.69
2022-11-18T18:45:59.371Z,95441.84
2022-11-18T18:48:30.436Z,95446.38
2022-11-18T18:51:01.316Z,95443.75
2022-11-18T18:56:01.933Z,95438.88
2022-11-18T18:58:29.829Z,95448.84
2022-11-18T19:03:30.434Z,95438.00
2022-11-18T19:06:27.709Z,95439.78
2022-11-18T19:11:30.035Z,95446.47
2022-11-18T19:13:58.938Z,95445.59
2022-11-18T19:16:25.891Z,95450.00
2022-11-18T19:18:56.167Z,95453.88
2022-11-18T19:21:23.030Z,95455.84
2022-11-18T19:23:50.574Z,95453.03
2022-11-18T19:26:18.652Z,95452.47
2022-11-18T19:28:49.758Z,95458.31
2022-11-18T19:31:19.406Z,95460.81
2022-11-18T19:33:46.557Z,95460.09
2022-11-18T19:36:13.207Z,95460.09
2022-11-18T19:38:40.371Z,95450.16
2022-11-18T19:41:07.111Z,95457.25
2022-11-18T19:43:36.771Z,95458.66
2022-11-18T19:52:13.034Z,95459.84
2022-11-18T19:54:39.534Z,95454.28
2022-11-18T19:57:06.270Z,95457.31
2022-11-18T19:59:32.728Z,95464.13
2022-11-18T20:04:50.530Z,95465.34
2022-11-18T20:07:21.815Z,95467.53
2022-11-18T20:09:48.612Z,95472.66
2022-11-18T20:12:15.183Z,95469.53
2022-11-18T20:14:42.107Z,95467.09
2022-11-18T20:17:10.720Z,95465.84
2022-11-18T20:19:41.026Z,95474.84
2022-11-18T22:14:50.772Z,95447.13
2022-11-18T22:17:17.533Z,95448.03
2022-11-18T22:19:44.038Z,95445.78
2022-11-18T22:22:11.348Z,95454.53
2022-11-18T22:24:37.838Z,95447.44
2022-11-18T22:27:09.854Z,95456.97
